createdAt,value
2018-06-04T00:00:32.542Z,77.79
2018-06-04T00:02:37.345Z,77.07
2018-06-04T00:04:42.024Z,77.46
2018-06-04T00:06:46.694Z,77.69
2018-06-04T00:08:51.305Z,78.05
2018-06-04T00:10:55.991Z,78.04
2018-06-04T00:13:00.631Z,78.58
2018-06-04T00:15:05.369Z,78.40
2018-06-04T00:17:10.222Z,78.77
2018-06-04T00:19:14.909Z,78.47
2018-06-04T00:21:19.205Z,78.72
2018-06-04T00:23:23.977Z,78.68
2018-06-04T00:25:28.664Z,79.39
2018-06-04T00:27:33.298Z,79.68
2018-06-04T00:29:37.964Z,79.46
2018-06-04T00:31:42.701Z,79.14
2018-06-04T00:33:47.325Z,79.48
2018-06-04T00:35:52.046Z,79.67
2018-06-04T00:37:56.811Z,78.96
2018-06-04T00:40:01.165Z,79.26
2018-06-04T00:42:05.899Z,79.78
2018-06-04T00:44:10.574Z,79.88
2018-06-04T00:46:15.336Z,80.07
2018-06-04T00:48:20.091Z,79.50
2018-06-04T00:50:24.775Z,79.53
2018-06-04T00:52:29.391Z,79.96
2018-06-04T00:54:34.017Z,80.14
2018-06-04T00:56:39.042Z,79.80
2018-06-04T00:58:43.838Z,80.08
2018-06-04T01:00:48.841Z,80.08
2018-06-04T01:02:53.574Z,80.38
2018-06-04T01:04:58.239Z,79.93
2018-06-04T01:07:03.039Z,80.02
2018-06-04T01:09:09.017Z,80.79
2018-06-04T01:11:13.843Z,81.32
2018-06-04T01:13:18.573Z,80.62
2018-06-04T01:15:23.327Z,81.09
2018-06-04T01:17:28.056Z,80.27
2018-06-04T01:19:32.851Z,80.74
2018-06-04T01:21:37.567Z,80.27
2018-06-04T01:23:42.251Z,81.04
2018-06-04T01:25:46.922Z,80.71
2018-06-04T01:27:51.554Z,80.38
2018-06-04T01:29:56.165Z,80.61
2018-06-04T01:32:00.895Z,80.84
2018-06-04T01:34:05.610Z,80.14
2018-06-04T01:36:10.414Z,80.85
2018-06-04T01:38:15.066Z,81.03
2018-06-04T01:40:19.743Z,80.87
2018-06-04T01:42:24.432Z,81.38
2018-06-04T01:44:29.245Z,81.27
2018-06-04T01:46:33.942Z,80.48
2018-06-04T01:48:38.657Z,80.69
2018-06-04T01:50:43.361Z,81.37
2018-06-04T01:52:48.060Z,81.52
2018-06-04T01:54:52.707Z,81.43
2018-06-04T01:56:57.491Z,80.84
2018-06-04T01:59:02.215Z,81.06
2018-06-04T02:01:06.888Z,81.70
2018-06-04T02:03:11.650Z,81.18
2018-06-04T02:05:16.416Z,81.42
2018-06-04T02:07:21.105Z,81.33
2018-06-04T02:09:25.733Z,82.08
2018-06-04T02:11:30.371Z,81.46
2018-06-04T02:13:34.975Z,81.65
2018-06-04T02:15:39.569Z,81.86
2018-06-04T02:17:44.186Z,81.46
2018-06-04T02:19:48.911Z,80.77
2018-06-04T02:21:53.565Z,81.20
2018-06-04T02:23:58.230Z,80.61
2018-06-04T02:26:02.886Z,81.24
2018-06-04T02:28:07.570Z,81.23
2018-06-04T02:30:12.333Z,81.20
2018-06-04T02:32:17.053Z,80.75
2018-06-04T02:34:21.709Z,80.65
2018-06-04T02:36:26.411Z,80.64
2018-06-04T02:38:31.102Z,80.08
2018-06-04T02:40:35.732Z,80.69
2018-06-04T02:42:40.420Z,80.06
2018-06-04T02:44:45.112Z,80.61
2018-06-04T02:46:49.720Z,79.80
2018-06-04T02:48:54.368Z,80.02
2018-06-04T02:51:00.014Z,79.31
2018-06-04T02:53:04.670Z,80.01
2018-06-04T02:55:09.336Z,79.83
2018-06-04T02:57:14.012Z,80.10
2018-06-04T02:59:18.736Z,79.96
2018-06-04T03:01:23.582Z,79.73
2018-06-04T03:03:28.280Z,79.59
2018-06-04T03:05:32.979Z,79.29
2018-06-04T03:07:37.607Z,80.16
2018-06-04T03:09:42.283Z,80.23
2018-06-04T03:11:46.961Z,80.30
2018-06-04T03:13:51.633Z,79.91
2018-06-04T03:15:56.355Z,80.17
2018-06-04T03:18:01.024Z,79.64
2018-06-04T03:20:05.792Z,79.96
2018-06-04T03:22:10.640Z,79.86
2018-06-04T03:24:15.271Z,79.33
2018-06-04T03:26:20.028Z,79.55
2018-06-04T03:28:24.681Z,79.57
2018-06-04T03:30:29.513Z,79.41
2018-06-04T03:32:34.206Z,80.03
2018-06-04T03:34:38.977Z,79.71
2018-06-04T03:36:43.647Z,79.92
2018-06-04T03:38:48.313Z,79.66
2018-06-04T03:40:52.955Z,79.62
2018-06-04T03:42:57.616Z,80.06
2018-06-04T03:45:02.301Z,79.28
2018-06-04T03:47:07.363Z,79.53
2018-06-04T03:49:11.694Z,78.81
2018-06-04T03:51:16.535Z,79.80
2018-06-04T03:53:21.476Z,79.82
2018-06-04T03:55:26.230Z,80.07
2018-06-04T03:57:30.896Z,79.90
2018-06-04T03:59:35.603Z,79.59
2018-06-04T04:01:40.241Z,79.19
2018-06-04T04:03:44.900Z,79.95
2018-06-04T04:05:49.520Z,79.99
2018-06-04T04:07:54.301Z,79.77
2018-06-04T04:09:59.043Z,79.75
2018-06-04T04:12:03.971Z,80.09
2018-06-04T04:14:08.785Z,80.12
2018-06-04T04:16:13.428Z,80.52
2018-06-04T04:18:18.208Z,79.89
2018-06-04T04:20:23.206Z,80.62
2018-06-04T04:22:27.888Z,80.58
2018-06-04T04:24:32.506Z,79.95
2018-06-04T04:26:37.136Z,80.30
2018-06-04T04:28:41.918Z,80.11
2018-06-04T04:30:46.576Z,80.36
2018-06-04T04:32:51.311Z,80.13
2018-06-04T04:34:56.172Z,80.30
2018-06-04T04:37:01.128Z,79.72
2018-06-04T04:39:09.519Z,80.00
2018-06-04T04:41:14.322Z,79.53
2018-06-04T04:43:19.045Z,79.50
2018-06-04T04:45:23.871Z,79.28
2018-06-04T04:47:28.589Z,78.85
2018-06-04T04:49:33.258Z,79.07
2018-06-04T04:51:38.003Z,78.57
2018-06-04T04:53:42.903Z,79.27
2018-06-04T04:55:47.775Z,78.79
2018-06-04T04:57:52.522Z,78.88
2018-06-04T04:59:57.282Z,78.68
2018-06-04T05:02:02.007Z,78.15
2018-06-04T05:04:06.885Z,78.18
2018-06-04T05:06:11.679Z,77.68
2018-06-04T05:08:16.366Z,76.71
2018-06-04T05:10:21.095Z,76.71
2018-06-04T05:12:25.972Z,76.60
2018-06-04T05:14:30.743Z,76.65
2018-06-04T05:16:35.538Z,76.90
2018-06-04T05:18:40.324Z,77.05
2018-06-04T05:20:45.026Z,77.03
2018-06-04T05:22:49.696Z,76.95
2018-06-04T05:24:54.499Z,77.37
2018-06-04T05:26:59.319Z,76.91
2018-06-04T05:29:04.122Z,76.63
2018-06-04T05:31:09.063Z,77.07
2018-06-04T05:33:13.863Z,75.48
2018-06-04T05:35:18.579Z,75.47
2018-06-04T05:37:23.556Z,75.14
2018-06-04T05:39:28.344Z,76.00
2018-06-04T05:41:33.207Z,75.87
2018-06-04T05:43:38.406Z,76.18
2018-06-04T05:45:43.150Z,75.73
2018-06-04T05:47:47.976Z,75.66
2018-06-04T05:49:52.858Z,75.84
2018-06-04T05:51:57.574Z,75.81
2018-06-04T05:54:02.287Z,75.39
2018-06-04T05:56:07.175Z,75.84
2018-06-04T05:58:11.894Z,75.22
2018-06-04T06:00:16.696Z,75.96
2018-06-04T06:02:21.485Z,75.33
2018-06-04T06:04:26.249Z,76.11
2018-06-04T06:06:30.998Z,75.74
2018-06-04T06:08:35.705Z,75.24
2018-06-04T06:10:40.467Z,75.65
2018-06-04T06:12:45.274Z,75.98
2018-06-04T06:14:50.062Z,75.27
2018-06-04T06:16:54.849Z,75.75
2018-06-04T06:18:59.698Z,75.32
2018-06-04T06:21:04.529Z,75.87
2018-06-04T06:23:09.317Z,75.94
2018-06-04T06:25:14.065Z,75.86
2018-06-04T06:27:18.771Z,75.20
2018-06-04T06:29:23.658Z,75.02
2018-06-04T06:31:28.438Z,74.73
2018-06-04T06:33:33.233Z,74.45
2018-06-04T06:35:38.016Z,75.29
2018-06-04T06:37:42.855Z,74.69
2018-06-04T06:39:47.657Z,74.68
2018-06-04T06:41:52.373Z,74.69
2018-06-04T06:43:57.135Z,74.85
2018-06-04T06:46:01.971Z,74.02
2018-06-04T06:48:06.788Z,73.80
2018-06-04T06:50:11.580Z,74.42
2018-06-04T06:52:16.456Z,74.03
2018-06-04T06:54:21.124Z,74.28
2018-06-04T06:56:25.880Z,73.61
2018-06-04T06:58:30.936Z,74.00
2018-06-04T07:00:36.140Z,74.06
2018-06-04T07:02:40.858Z,74.39
2018-06-04T07:04:45.957Z,74.28
2018-06-04T07:06:50.702Z,73.98
2018-06-04T07:08:55.399Z,73.50
2018-06-04T07:11:00.163Z,73.24
2018-06-04T07:13:05.011Z,72.91
2018-06-04T07:15:10.153Z,72.91
2018-06-04T07:17:15.308Z,72.17
2018-06-04T07:19:20.645Z,72.22
2018-06-04T07:21:26.356Z,72.71
2018-06-04T07:23:31.496Z,72.28
2018-06-04T07:25:36.716Z,71.72
2018-06-04T07:27:42.114Z,69.93
2018-06-04T07:29:47.235Z,70.75
2018-06-04T07:31:52.548Z,70.19
2018-06-04T07:33:57.572Z,70.34
2018-06-04T07:36:12.169Z,68.91
2018-06-04T07:38:17.306Z,69.07
2018-06-04T07:40:22.687Z,69.75
2018-06-04T07:42:27.639Z,69.42
2018-06-04T07:44:33.244Z,70.58
2018-06-04T07:46:38.053Z,69.34
2018-06-04T07:48:43.158Z,68.45
2018-06-04T07:50:56.502Z,68.02
2018-06-04T07:53:01.223Z,68.19
2018-06-04T07:55:06.241Z,67.76
2018-06-04T07:57:11.399Z,68.30
2018-06-04T07:59:16.570Z,67.87
2018-06-04T08:01:21.913Z,67.33
2018-06-04T08:03:26.675Z,66.80
2018-06-04T08:05:31.570Z,66.74
2018-06-04T08:07:36.545Z,66.91
2018-06-04T08:09:41.264Z,66.19
2018-06-04T08:11:46.078Z,65.45
2018-06-04T08:13:50.880Z,66.64
2018-06-04T08:15:55.879Z,66.22
2018-06-04T08:18:00.997Z,64.59
2018-06-04T08:20:06.580Z,64.67
2018-06-04T08:22:11.545Z,63.95
2018-06-04T08:24:16.836Z,63.89
2018-06-04T08:26:21.751Z,64.18
2018-06-04T08:28:26.805Z,63.81
2018-06-04T08:30:32.007Z,64.28
2018-06-04T08:32:36.990Z,62.64
2018-06-04T08:34:41.887Z,61.98
2018-06-04T08:36:46.670Z,61.95
2018-06-04T08:38:51.620Z,61.27
2018-06-04T08:40:56.502Z,61.60
2018-06-04T08:43:01.475Z,60.40
2018-06-04T08:45:06.841Z,59.62
2018-06-04T08:47:11.709Z,60.25
2018-06-04T08:49:16.548Z,58.81
2018-06-04T08:51:21.426Z,58.38
2018-06-04T08:53:26.419Z,57.71
2018-06-04T08:55:31.297Z,58.44
2018-06-04T08:57:36.286Z,57.27
2018-06-04T08:59:41.251Z,57.23
2018-06-04T09:01:47.404Z,58.58
2018-06-04T09:03:52.190Z,57.43
2018-06-04T09:08:11.070Z,58.68
2018-06-04T09:10:15.794Z,58.13
2018-06-04T09:12:20.459Z,57.68
2018-06-04T09:14:25.197Z,57.76
2018-06-04T09:16:29.877Z,56.61
2018-06-04T09:18:34.496Z,56.59
2018-06-04T09:20:39.251Z,56.48
2018-06-04T09:22:44.057Z,55.05
2018-06-04T09:24:48.954Z,55.29
2018-06-04T09:26:54.143Z,55.59
2018-06-04T09:28:59.074Z,55.67
2018-06-04T09:31:04.293Z,56.29
2018-06-04T09:33:12.199Z,53.99
2018-06-04T09:35:17.137Z,53.74
2018-06-04T09:37:22.004Z,54.28
2018-06-04T09:39:27.313Z,54.38
2018-06-04T09:41:32.199Z,52.70
2018-06-04T09:43:37.452Z,51.38
2018-06-04T09:45:42.175Z,52.24
2018-06-04T09:47:47.086Z,53.04
2018-06-04T09:49:51.933Z,52.90
2018-06-04T09:51:56.788Z,54.35
2018-06-04T09:54:01.799Z,53.79
2018-06-04T09:56:06.722Z,53.51
2018-06-04T09:58:11.486Z,53.37
2018-06-04T10:00:21.371Z,52.61
2018-06-04T10:02:26.555Z,52.98
2018-06-04T10:04:31.659Z,52.64
2018-06-04T10:06:36.683Z,51.34
2018-06-04T10:08:42.159Z,53.16
2018-06-04T10:10:47.129Z,51.47
2018-06-04T10:12:51.929Z,50.83
2018-06-04T10:14:57.194Z,49.99
2018-06-04T10:17:01.990Z,50.89
2018-06-04T10:19:07.652Z,50.35
2018-06-04T10:21:12.471Z,49.79
2018-06-04T10:23:17.251Z,50.07
2018-06-04T10:25:22.042Z,50.26
2018-06-04T10:27:26.813Z,50.25
2018-06-04T10:29:31.704Z,50.30
2018-06-04T10:31:36.480Z,48.55
2018-06-04T10:33:41.195Z,47.17
2018-06-04T10:35:45.992Z,47.19
2018-06-04T10:37:50.628Z,48.50
2018-06-04T10:39:55.289Z,46.59
2018-06-04T10:41:59.902Z,48.64
2018-06-04T10:44:05.045Z,46.70
2018-06-04T10:46:09.862Z,47.14
2018-06-04T10:48:14.539Z,47.37
2018-06-04T10:50:19.323Z,46.14
2018-06-04T10:52:24.222Z,46.47
2018-06-04T10:54:29.051Z,46.22
2018-06-04T10:56:33.757Z,47.10
2018-06-04T10:58:38.478Z,47.09
2018-06-04T11:00:43.119Z,47.16
2018-06-04T11:02:47.914Z,47.16
2018-06-04T11:04:52.597Z,45.77
2018-06-04T11:06:57.386Z,46.16
2018-06-04T11:09:02.038Z,45.10
2018-06-04T11:11:06.778Z,45.65
2018-06-04T11:13:11.525Z,45.99
2018-06-04T11:15:16.532Z,47.52
2018-06-04T11:17:21.494Z,45.75
2018-06-04T11:19:26.508Z,46.58
2018-06-04T11:21:31.313Z,47.24
2018-06-04T11:23:36.117Z,48.60
2018-06-04T11:25:40.963Z,49.10
2018-06-04T11:27:45.675Z,48.35
2018-06-04T11:29:50.376Z,47.43
2018-06-04T11:31:55.068Z,48.53
2018-06-04T11:33:59.740Z,47.24
2018-06-04T11:36:04.813Z,47.83
2018-06-04T11:38:13.001Z,47.77
2018-06-04T11:40:18.565Z,48.85
2018-06-04T11:42:23.342Z,47.38
2018-06-04T11:44:28.035Z,47.78
2018-06-04T11:46:32.793Z,48.61
2018-06-04T11:48:37.621Z,48.25
2018-06-04T11:50:42.685Z,47.37
2018-06-04T11:52:47.678Z,46.79
2018-06-04T11:54:56.091Z,47.74
2018-06-04T11:57:00.879Z,48.93
2018-06-04T11:59:06.294Z,47.15
2018-06-04T12:01:11.580Z,47.53
2018-06-04T12:03:16.493Z,47.99
2018-06-04T12:05:21.316Z,48.49
2018-06-04T12:07:26.041Z,46.87
2018-06-04T12:09:30.852Z,47.80
2018-06-04T12:11:35.932Z,47.03
2018-06-04T12:13:40.741Z,47.59
2018-06-04T12:15:45.614Z,47.90
2018-06-04T12:17:57.945Z,46.77
2018-06-04T12:20:02.619Z,45.01
2018-06-04T12:22:07.443Z,45.13
2018-06-04T12:24:12.161Z,45.76
2018-06-04T12:26:16.971Z,45.47
2018-06-04T12:28:21.812Z,43.51
2018-06-04T12:30:26.471Z,43.37
2018-06-04T12:32:31.211Z,42.78
2018-06-04T12:34:35.950Z,42.52
2018-06-04T12:36:41.179Z,42.62
2018-06-04T12:38:46.078Z,43.33
2018-06-04T12:40:50.920Z,42.71
2018-06-04T12:42:55.797Z,41.60
2018-06-04T12:45:00.522Z,42.69
2018-06-04T12:47:05.369Z,45.05
2018-06-04T12:49:10.145Z,46.08
2018-06-04T12:51:14.951Z,46.40
2018-06-04T12:53:19.583Z,46.32
2018-06-04T12:55:24.354Z,47.45
2018-06-04T12:59:45.464Z,50.75
2018-06-04T13:01:50.291Z,50.60
2018-06-04T13:03:55.286Z,50.68
2018-06-04T13:05:59.965Z,49.74
2018-06-04T13:08:04.665Z,50.30
2018-06-04T13:10:09.370Z,50.39
2018-06-04T13:12:14.130Z,48.25
2018-06-04T13:14:18.875Z,47.77
2018-06-04T13:16:23.707Z,45.70
2018-06-04T13:18:28.480Z,45.53
2018-06-04T13:20:33.456Z,45.81
2018-06-04T13:22:38.402Z,48.47
2018-06-04T13:24:43.174Z,47.37
2018-06-04T13:26:47.999Z,47.16
2018-06-04T13:28:52.869Z,46.81
2018-06-04T13:30:57.739Z,46.91
2018-06-04T13:33:02.635Z,47.00
2018-06-04T13:35:09.301Z,46.95
2018-06-04T13:37:14.265Z,46.49
2018-06-04T13:39:19.238Z,47.42
2018-06-04T13:41:24.190Z,47.41
2018-06-04T13:43:29.112Z,47.18
2018-06-04T13:45:34.019Z,48.80
2018-06-04T13:47:38.844Z,51.07
2018-06-04T13:49:43.666Z,50.78
2018-06-04T13:51:48.653Z,51.54
2018-06-04T13:53:53.497Z,51.15
2018-06-04T13:55:57.920Z,51.37
2018-06-04T13:58:02.886Z,49.01
2018-06-04T14:00:07.932Z,48.83
2018-06-04T14:02:12.723Z,50.64
2018-06-04T14:04:17.768Z,51.38
2018-06-04T14:06:22.521Z,52.92
2018-06-04T14:08:27.513Z,52.97
2018-06-04T14:10:32.299Z,52.71
2018-06-04T14:12:37.239Z,52.66
2018-06-04T14:14:42.135Z,53.80
2018-06-04T14:16:46.953Z,52.68
2018-06-04T14:18:51.808Z,50.29
2018-06-04T14:20:56.679Z,51.28
2018-06-04T14:23:01.554Z,51.19
2018-06-04T14:25:06.470Z,51.57
2018-06-04T14:27:11.405Z,51.34
2018-06-04T14:29:17.893Z,49.06
2018-06-04T14:31:22.870Z,49.72
2018-06-04T14:33:27.658Z,49.84
2018-06-04T14:35:33.256Z,49.93
2018-06-04T14:37:38.205Z,49.05
2018-06-04T14:39:44.876Z,49.69
2018-06-04T14:41:49.941Z,48.26
2018-06-04T14:43:54.893Z,47.34
2018-06-04T14:45:59.787Z,48.47
2018-06-04T14:48:04.780Z,48.76
2018-06-04T14:50:09.657Z,48.95
2018-06-04T14:52:14.575Z,48.48
2018-06-04T14:54:19.611Z,47.42
2018-06-04T14:56:24.520Z,46.31
2018-06-04T14:58:30.204Z,47.78
2018-06-04T15:00:35.230Z,47.35
2018-06-04T15:02:40.204Z,47.93
2018-06-04T15:04:45.177Z,47.11
2018-06-04T15:06:50.059Z,46.67
2018-06-04T15:08:54.946Z,46.61
2018-06-04T15:10:59.723Z,47.15
2018-06-04T15:13:04.771Z,47.65
2018-06-04T15:15:09.585Z,48.08
2018-06-04T15:17:14.443Z,49.14
2018-06-04T15:19:19.263Z,50.78
2018-06-04T15:21:24.046Z,50.39
2018-06-04T15:23:28.927Z,51.29
2018-06-04T15:25:33.895Z,51.46
2018-06-04T15:27:38.672Z,51.77
2018-06-04T15:29:43.536Z,52.21
2018-06-04T15:31:48.385Z,54.44
2018-06-04T15:33:53.277Z,54.76
2018-06-04T15:35:58.148Z,55.17
2018-06-04T15:38:03.070Z,54.19
2018-06-04T15:40:07.879Z,54.84
2018-06-04T15:42:12.831Z,54.02
2018-06-04T15:44:17.738Z,52.74
2018-06-04T15:46:22.652Z,52.96
2018-06-04T15:48:27.583Z,52.54
2018-06-04T15:50:32.395Z,53.08
2018-06-04T15:54:38.579Z,53.79
2018-06-04T15:56:44.870Z,53.57
2018-06-04T15:58:50.172Z,51.85
2018-06-04T16:00:56.239Z,51.82
2018-06-04T16:03:01.287Z,52.17
2018-06-04T16:05:06.756Z,51.63
2018-06-04T16:07:11.603Z,51.67
2018-06-04T16:09:16.535Z,51.54
2018-06-04T16:11:21.253Z,50.94
2018-06-04T16:13:26.184Z,50.49
2018-06-04T16:15:31.143Z,50.38
2018-06-04T16:17:35.972Z,50.20
2018-06-04T16:19:40.849Z,49.13
2018-06-04T16:21:45.838Z,49.24
2018-06-04T16:23:50.874Z,47.83
2018-06-04T16:25:55.908Z,48.76
2018-06-04T16:28:00.800Z,48.64
2018-06-04T16:30:07.559Z,47.56
2018-06-04T16:32:12.316Z,47.91
2018-06-04T16:34:17.030Z,48.95
2018-06-04T16:36:21.694Z,48.28
2018-06-04T16:38:26.404Z,48.21
2018-06-04T16:40:31.094Z,48.76
2018-06-04T16:42:35.841Z,47.71
2018-06-04T16:44:40.619Z,47.16
2018-06-04T16:46:45.378Z,47.12
2018-06-04T16:48:50.077Z,45.72
2018-06-04T16:50:54.769Z,45.40
2018-06-04T16:52:59.662Z,46.08
2018-06-04T16:55:04.563Z,44.63
2018-06-04T16:57:09.247Z,46.15
2018-06-04T16:59:14.448Z,45.48
2018-06-04T17:01:19.238Z,46.61
2018-06-04T17:03:24.135Z,47.80
2018-06-04T17:05:29.050Z,48.85
2018-06-04T17:07:33.869Z,46.51
2018-06-04T17:09:38.764Z,48.62
2018-06-04T17:11:43.618Z,47.97
2018-06-04T17:13:48.352Z,47.13
2018-06-04T17:15:53.467Z,45.86
2018-06-04T17:17:59.218Z,46.24
2018-06-04T17:20:04.116Z,46.21
2018-06-04T17:22:09.160Z,47.19
2018-06-04T17:24:14.054Z,45.25
2018-06-04T17:26:18.833Z,47.14
2018-06-04T17:28:23.508Z,47.17
2018-06-04T17:30:28.373Z,47.67
2018-06-04T17:32:33.154Z,48.01
2018-06-04T17:34:37.849Z,47.26
2018-06-04T17:36:42.677Z,48.41
2018-06-04T17:38:47.562Z,49.52
2018-06-04T17:40:52.372Z,48.77
2018-06-04T17:42:57.142Z,48.80
2018-06-04T17:45:02.267Z,49.28
2018-06-04T17:47:06.995Z,49.18
2018-06-04T17:49:11.797Z,48.46
2018-06-04T17:51:17.097Z,49.24
2018-06-04T17:53:22.036Z,49.35
2018-06-04T17:55:27.712Z,49.14
2018-06-04T17:57:32.685Z,48.65
2018-06-04T17:59:37.498Z,49.44
2018-06-04T18:01:43.140Z,48.67
2018-06-04T18:03:48.716Z,50.20
2018-06-04T18:05:54.805Z,50.29
2018-06-04T18:07:59.745Z,49.60
2018-06-04T18:10:04.891Z,48.28
2018-06-04T18:12:09.891Z,47.65
2018-06-04T18:14:15.144Z,47.93
2018-06-04T18:16:19.925Z,49.80
2018-06-04T18:18:24.840Z,48.58
2018-06-04T18:20:29.681Z,50.33
2018-06-04T18:22:34.352Z,51.46
2018-06-04T18:24:39.413Z,51.45
2018-06-04T18:26:44.187Z,52.58
2018-06-04T18:28:50.326Z,53.39
2018-06-04T18:30:56.415Z,53.10
2018-06-04T18:33:01.933Z,53.48
2018-06-04T18:35:06.401Z,54.14
2018-06-04T18:37:11.628Z,55.44
2018-06-04T18:39:17.154Z,56.78
2018-06-04T18:41:22.638Z,56.33
2018-06-04T18:43:51.990Z,55.52
2018-06-04T18:46:06.682Z,55.90
2018-06-04T18:48:36.114Z,55.89
2018-06-04T18:51:09.628Z,55.99
2018-06-04T18:53:45.788Z,56.84
2018-06-04T18:56:09.861Z,56.00
2018-06-04T18:58:22.115Z,55.93
2018-06-04T19:00:27.172Z,56.94
2018-06-04T19:02:41.140Z,57.60
2018-06-04T19:05:16.575Z,58.54
2018-06-04T19:07:49.621Z,58.39
2018-06-04T19:10:11.475Z,59.07
2018-06-04T19:12:48.910Z,57.36
2018-06-04T19:15:00.479Z,58.40
2018-06-04T19:17:30.596Z,58.84
2018-06-04T19:20:10.960Z,59.21
2018-06-04T19:22:51.067Z,59.54
2018-06-04T19:24:57.108Z,59.17
2018-06-04T19:27:32.912Z,59.83
2018-06-04T19:30:14.414Z,60.06
2018-06-04T19:32:42.254Z,60.06
2018-06-04T19:34:51.165Z,60.29
2018-06-04T19:37:19.002Z,60.82
2018-06-04T19:39:53.418Z,59.75
2018-06-04T19:42:13.184Z,60.53
2018-06-04T19:44:23.620Z,61.51
2018-06-04T19:49:13.219Z,62.21
2018-06-04T19:51:29.029Z,62.00
2018-06-04T19:54:01.375Z,62.25
2018-06-04T19:56:23.994Z,62.49
2018-06-04T19:58:32.185Z,63.29
2018-06-04T20:00:44.349Z,63.29
2018-06-04T20:02:54.171Z,62.83
2018-06-04T20:07:05.510Z,63.91
2018-06-04T20:09:17.989Z,63.86
2018-06-04T20:11:29.680Z,63.90
2018-06-04T20:14:18.708Z,64.54
2018-06-04T20:16:30.478Z,64.50
2018-06-04T20:18:42.068Z,64.67
2018-06-04T20:20:47.102Z,65.49
2018-06-04T20:23:05.001Z,65.25
2018-06-04T20:25:15.545Z,66.15
2018-06-04T20:27:21.116Z,65.76
2018-06-04T20:29:26.203Z,66.33
2018-06-04T20:31:31.079Z,66.67
2018-06-04T20:33:36.099Z,66.30
2018-06-04T20:35:42.111Z,66.93
2018-06-04T20:37:47.191Z,66.79
2018-06-04T20:39:52.273Z,67.51
2018-06-04T20:41:57.120Z,67.96
2018-06-04T20:44:01.925Z,68.02
2018-06-04T20:46:07.084Z,66.63
2018-06-04T20:48:12.230Z,68.79
2018-06-04T20:50:17.032Z,68.69
2018-06-04T20:52:22.041Z,68.76
2018-06-04T20:54:27.042Z,69.19
2018-06-04T20:56:32.120Z,69.88
2018-06-04T20:58:37.808Z,70.66
2018-06-04T21:00:44.687Z,71.00
2018-06-04T21:02:50.301Z,71.21
2018-06-04T21:04:55.400Z,70.36
2018-06-04T21:07:00.230Z,70.79
2018-06-04T21:09:07.812Z,71.56
2018-06-04T21:11:12.714Z,71.53
2018-06-04T21:13:18.133Z,71.07
2018-06-04T21:15:22.946Z,71.37
2018-06-04T21:17:27.853Z,71.64
2018-06-04T21:19:32.875Z,72.16
2018-06-04T21:21:40.134Z,72.96
2018-06-04T21:23:44.888Z,73.06
2018-06-04T21:25:49.684Z,73.14
2018-06-04T21:27:54.523Z,73.98
2018-06-04T21:29:59.342Z,73.43
2018-06-04T21:32:04.206Z,73.61
2018-06-04T21:34:08.996Z,74.35
2018-06-04T21:36:13.825Z,74.33
2018-06-04T21:38:18.628Z,74.49
2018-06-04T21:40:23.376Z,75.04
2018-06-04T21:42:28.192Z,74.86
2018-06-04T21:44:33.047Z,75.33
2018-06-04T21:46:37.820Z,75.27
2018-06-04T21:48:47.955Z,75.43
2018-06-04T21:50:56.455Z,75.55
2018-06-04T21:53:01.237Z,75.24
2018-06-04T21:55:06.149Z,75.21
2018-06-04T21:57:11.250Z,75.66
2018-06-04T21:59:15.996Z,75.75
2018-06-04T22:01:20.762Z,76.48
2018-06-04T22:03:25.821Z,76.26
2018-06-04T22:05:30.868Z,75.57
2018-06-04T22:07:35.912Z,75.57
2018-06-04T22:09:40.758Z,75.87
2018-06-04T22:11:45.746Z,76.08
2018-06-04T22:13:50.846Z,76.70
2018-06-04T22:15:55.633Z,76.70
2018-06-04T22:18:00.401Z,77.32
2018-06-04T22:20:05.278Z,77.64
2018-06-04T22:22:10.013Z,78.46
2018-06-04T22:24:14.742Z,78.86
2018-06-04T22:26:19.568Z,78.00
2018-06-04T22:28:24.348Z,79.00
2018-06-04T22:30:29.425Z,79.31
2018-06-04T22:32:34.365Z,78.68
2018-06-04T22:34:39.202Z,78.83
2018-06-04T22:36:43.915Z,78.87
2018-06-04T22:38:48.721Z,78.98
2018-06-04T22:40:53.440Z,79.79
2018-06-04T22:42:58.191Z,80.14
2018-06-04T22:45:02.997Z,79.99
2018-06-04T22:47:07.787Z,80.10
2018-06-04T22:49:12.467Z,80.65
2018-06-04T22:51:17.166Z,80.41
2018-06-04T22:53:21.858Z,80.36
2018-06-04T22:55:26.613Z,80.64
2018-06-04T22:57:31.483Z,81.42
2018-06-04T22:59:36.123Z,80.83
2018-06-04T23:01:40.947Z,80.14
2018-06-04T23:03:45.746Z,80.78
2018-06-04T23:05:50.519Z,81.00
2018-06-04T23:07:55.262Z,80.98
2018-06-04T23:10:00.030Z,81.03
2018-06-04T23:12:04.794Z,81.50
2018-06-04T23:14:09.507Z,80.79
2018-06-04T23:16:14.369Z,81.04
2018-06-04T23:18:19.117Z,81.74
2018-06-04T23:20:23.932Z,81.30
2018-06-04T23:22:28.739Z,81.45
2018-06-04T23:24:33.517Z,80.97
2018-06-04T23:26:38.193Z,81.73
2018-06-04T23:28:42.869Z,82.47
2018-06-04T23:30:47.569Z,81.93
2018-06-04T23:32:52.210Z,82.18
2018-06-04T23:34:56.922Z,80.99
2018-06-04T23:37:01.684Z,81.72
2018-06-04T23:39:09.322Z,81.43
2018-06-04T23:41:14.039Z,81.76
2018-06-04T23:43:18.791Z,81.87
2018-06-04T23:45:23.428Z,81.64
2018-06-04T23:47:28.266Z,82.79
2018-06-04T23:49:33.030Z,81.88
2018-06-04T23:51:37.746Z,82.96
2018-06-04T23:53:42.486Z,82.96
2018-06-04T23:55:47.171Z,82.76
2018-06-04T23:57:51.896Z,82.62
2018-06-04T23:59:56.681Z,81.93
